Time;durP1;ratioP1;P1;durP2;ratioP2;P2;SDS_P1;SDS_P2;PMS_P1;PMS_P2;Temp;Humidity;BMP_temperature;BMP_pressure;BME280_temperature;BME280_humidity;BME280_pressure;Samples;Min_cycle;Max_cycle;Signal;HPM_P1;HPM_P2
2024/01/02 00:01:17;;;;;;;;;;;179.80;2252.80;;;;;;4958998;28;19924;-76
2024/01/02 00:03:43;;;;;;;;;;;179.80;2252.80;;;;;;4976630;28;19973;-77
2024/01/02 00:06:13;;;;;;;;;;;179.80;2252.80;;;;;;4959093;28;19949;-77
2024/01/02 00:08:38;;;;;;;;;;;180.00;2252.80;;;;;;4959287;28;19906;-75
2024/01/02 00:11:04;;;;;;;;;;;179.80;2252.80;;;;;;4977478;28;20374;-78
2024/01/02 00:13:29;;;;;;;;;;;179.70;2252.80;;;;;;4976587;28;19914;-76
2024/01/02 00:15:55;;;;;;;;;;;179.70;2252.80;;;;;;4959370;28;19960;-76
2024/01/02 00:18:21;;;;;;;;;;;179.70;2252.80;;;;;;4959061;28;20716;-76
2024/01/02 00:20:46;;;;;;;;;;;179.70;2252.80;;;;;;4976906;28;19917;-77
2024/01/02 00:23:12;;;;;;;;;;;179.60;2252.80;;;;;;4976290;28;20141;-75
2024/01/02 00:25:37;;;;;;;;;;;179.60;2252.80;;;;;;4958934;28;19917;-76
2024/01/02 00:28:03;;;;;;;;;;;179.50;2252.80;;;;;;4976315;28;20438;-78
2024/01/02 00:30:31;;;;;;;;;;;179.60;2252.80;;;;;;4976851;28;20008;-75
2024/01/02 00:32:57;;;;;;;;;;;179.70;2252.80;;;;;;4976098;28;19914;-75
2024/01/02 00:35:23;;;;;;;;;;;179.70;2252.80;;;;;;4976395;28;19912;-75
2024/01/02 00:37:48;;;;;;;;;;;179.70;2252.80;;;;;;4975808;28;19996;-75
2024/01/02 00:40:15;;;;;;;;;;;179.80;2252.80;;;;;;4976313;28;19906;-76
2024/01/02 00:42:41;;;;;;;;;;;179.90;2252.80;;;;;;4958477;28;20283;-76
2024/01/02 00:45:06;;;;;;;;;;;179.90;2252.80;;;;;;4958662;28;19910;-75
2024/01/02 00:47:32;;;;;;;;;;;180.00;2252.80;;;;;;4976054;28;19910;-75
2024/01/02 00:49:58;;;;;;;;;;;180.10;2252.80;;;;;;4958822;28;19913;-76
2024/01/02 00:52:23;;;;;;;;;;;180.10;2252.80;;;;;;4975840;28;19917;-76
2024/01/02 00:54:51;;;;;;;;;;;180.10;2252.80;;;;;;4976084;28;19929;-75
2024/01/02 00:57:17;;;;;;;;;;;204.80;2252.80;;;;;;4976161;28;20327;-76
2024/01/02 00:59:42;;;;;;;;;;;204.80;2252.80;;;;;;4976263;28;19993;-76
2024/01/02 01:02:08;;;;;;;;;;;180.00;2252.80;;;;;;4974257;28;19918;-78
2024/01/02 01:04:33;;;;;;;;;;;204.80;2252.80;;;;;;4959093;28;20371;-77
2024/01/02 01:06:59;;;;;;;;;;;204.90;2252.80;;;;;;4959053;28;19937;-78
2024/01/02 01:09:25;;;;;;;;;;;204.90;2252.80;;;;;;4959190;28;20364;-77
2024/01/02 01:11:50;;;;;;;;;;;204.80;2252.80;;;;;;4975246;28;19914;-75
2024/01/02 01:14:16;;;;;;;;;;;180.10;2252.80;;;;;;4975758;28;19914;-76
2024/01/02 01:16:41;;;;;;;;;;;180.00;2252.80;;;;;;4958441;28;20419;-76
2024/01/02 01:19:07;;;;;;;;;;;180.00;2252.80;;;;;;4975760;28;19961;-76
2024/01/02 01:21:33;;;;;;;;;;;180.00;2252.80;;;;;;4973300;28;20264;-77
2024/01/02 01:23:58;;;;;;;;;;;179.80;2252.80;;;;;;4948185;28;20357;-77
2024/01/02 01:26:24;;;;;;;;;;;179.60;2252.80;;;;;;4975509;28;20018;-76
2024/01/02 01:28:50;;;;;;;;;;;179.70;2252.80;;;;;;4975750;28;19960;-76
2024/01/02 01:31:15;;;;;;;;;;;179.30;2252.80;;;;;;4975452;28;19940;-75
2024/01/02 01:33:41;;;;;;;;;;;179.20;2252.80;;;;;;4958497;28;19910;-76
2024/01/02 01:36:07;;;;;;;;;;;154.50;2252.80;;;;;;4975591;28;19933;-75
2024/01/02 01:38:32;;;;;;;;;;;179.30;2252.80;;;;;;4975745;28;19906;-76
2024/01/02 01:40:58;;;;;;;;;;;179.50;2252.80;;;;;;4975282;28;19906;-76
2024/01/02 01:43:23;;;;;;;;;;;179.60;2252.80;;;;;;4975434;28;20261;-75
2024/01/02 01:45:49;;;;;;;;;;;179.50;2252.80;;;;;;4975766;28;19925;-76
2024/01/02 01:48:15;;;;;;;;;;;179.50;2252.80;;;;;;4975436;28;19913;-76
2024/01/02 01:50:41;;;;;;;;;;;179.60;2252.80;;;;;;4975050;28;19948;-75
2024/01/02 01:53:08;;;;;;;;;;;179.70;2252.80;;;;;;4975266;28;19914;-75
2024/01/02 01:55:33;;;;;;;;;;;179.70;2252.80;;;;;;4975009;28;19913;-77
2024/01/02 01:57:59;;;;;;;;;;;179.50;2252.80;;;;;;4975263;28;20256;-75
2024/01/02 02:00:25;;;;;;;;;;;179.40;2252.80;;;;;;4957468;28;20279;-76
2024/01/02 02:02:51;;;;;;;;;;;179.30;2252.80;;;;;;4957996;28;20299;-76
2024/01/02 02:05:17;;;;;;;;;;;179.20;2252.80;;;;;;4957815;28;19964;-75
2024/01/02 02:07:43;;;;;;;;;;;179.20;2252.80;;;;;;4975410;28;19906;-76
2024/01/02 02:10:09;;;;;;;;;;;179.30;2252.80;;;;;;4975111;28;19917;-77
2024/01/02 02:12:34;;;;;;;;;;;179.40;2252.80;;;;;;4976893;28;20323;-75
2024/01/02 02:15:00;;;;;;;;;;;179.50;2252.80;;;;;;4975952;28;19910;-76
2024/01/02 02:17:29;;;;;;;;;;;179.60;2252.80;;;;;;4974754;28;19914;-78
2024/01/02 02:19:55;;;;;;;;;;;179.70;2252.80;;;;;;4974504;28;19912;-76
2024/01/02 02:22:28;;;;;;;;;;;179.70;2252.80;;;;;;4974809;28;19946;-78
2024/01/02 02:24:54;;;;;;;;;;;179.70;2252.80;;;;;;4962103;28;20292;-78
2024/01/02 02:27:19;;;;;;;;;;;179.70;2252.80;;;;;;4957616;28;19917;-76
2024/01/02 02:29:45;;;;;;;;;;;179.70;2252.80;;;;;;4974651;28;20005;-76
2024/01/02 02:32:10;;;;;;;;;;;179.50;2252.80;;;;;;4957567;28;19969;-77
2024/01/02 02:34:36;;;;;;;;;;;179.20;2252.80;;;;;;4974803;28;20464;-76
2024/01/02 02:37:02;;;;;;;;;;;154.10;2252.80;;;;;;4974729;28;19906;-75
2024/01/02 02:39:28;;;;;;;;;;;154.30;2252.80;;;;;;4974805;28;20241;-75
2024/01/02 02:41:53;;;;;;;;;;;154.50;2252.80;;;;;;4974645;28;19906;-76
2024/01/02 02:44:19;;;;;;;;;;;179.40;2252.80;;;;;;4974443;28;19957;-76
2024/01/02 02:46:44;;;;;;;;;;;179.50;2252.80;;;;;;4957094;28;20431;-75
2024/01/02 02:49:10;;;;;;;;;;;179.50;2252.80;;;;;;4974570;28;19953;-77
2024/01/02 02:51:36;;;;;;;;;;;154.50;2252.80;;;;;;4974476;28;19917;-76
2024/01/02 02:54:01;;;;;;;;;;;154.50;2252.80;;;;;;4957275;28;19906;-76
2024/01/02 02:56:27;;;;;;;;;;;154.40;2252.80;;;;;;4974641;28;19906;-76
2024/01/02 02:58:52;;;;;;;;;;;154.30;2252.80;;;;;;4955439;28;19906;-75
2024/01/02 03:01:22;;;;;;;;;;;154.20;2252.80;;;;;;4946431;28;20280;-75
2024/01/02 03:03:48;;;;;;;;;;;153.80;2252.80;;;;;;4974565;28;20307;-75
2024/01/02 03:06:14;;;;;;;;;;;153.80;2252.80;;;;;;4974477;28;19913;-76
2024/01/02 03:08:39;;;;;;;;;;;153.80;2252.80;;;;;;4974164;28;19913;-78
2024/01/02 03:11:05;;;;;;;;;;;153.80;2252.80;;;;;;4948340;28;20020;-76
2024/01/02 03:13:31;;;;;;;;;;;154.00;2252.80;;;;;;4970267;28;19918;-76
2024/01/02 03:15:56;;;;;;;;;;;154.10;2252.80;;;;;;4957172;28;20422;-76
2024/01/02 03:18:22;;;;;;;;;;;154.50;2252.80;;;;;;4974302;28;19993;-77
2024/01/02 03:20:48;;;;;;;;;;;179.30;2252.80;;;;;;4974501;28;19912;-76
2024/01/02 03:23:14;;;;;;;;;;;179.40;2252.80;;;;;;4973997;28;19921;-76
2024/01/02 03:25:40;;;;;;;;;;;179.50;2252.80;;;;;;4957029;28;19953;-76
2024/01/02 03:28:05;;;;;;;;;;;179.40;2252.80;;;;;;4974154;28;20060;-77
2024/01/02 03:30:31;;;;;;;;;;;179.40;2252.80;;;;;;4974362;28;20000;-76
2024/01/02 03:32:56;;;;;;;;;;;179.40;2252.80;;;;;;4956680;28;19914;-76
2024/01/02 03:35:22;;;;;;;;;;;179.40;2252.80;;;;;;4975038;28;19956;-76
2024/01/02 03:37:48;;;;;;;;;;;179.30;2252.80;;;;;;4960574;28;19914;-76
2024/01/02 03:40:14;;;;;;;;;;;179.20;2252.80;;;;;;4978136;28;19910;-76
2024/01/02 03:42:40;;;;;;;;;;;154.40;2252.80;;;;;;4976410;28;19961;-78
2024/01/02 03:45:06;;;;;;;;;;;154.10;2252.80;;;;;;4977511;28;19917;-76
2024/01/02 03:47:32;;;;;;;;;;;153.70;2252.80;;;;;;4977585;28;20279;-76
2024/01/02 03:49:58;;;;;;;;;;;153.60;2252.80;;;;;;4977577;28;19906;-76
2024/01/02 03:52:23;;;;;;;;;;;128.90;2252.80;;;;;;4977202;28;20013;-76
2024/01/02 03:54:49;;;;;;;;;;;128.90;2252.80;;;;;;4977416;28;19906;-75
2024/01/02 03:57:14;;;;;;;;;;;153.90;2252.80;;;;;;4977375;28;20400;-78
2024/01/02 03:59:40;;;;;;;;;;;154.30;2252.80;;;;;;4969636;28;19912;-78
2024/01/02 04:02:07;;;;;;;;;;;154.40;2252.80;;;;;;4955034;28;19910;-75
2024/01/02 04:04:32;;;;;;;;;;;154.50;2252.80;;;;;;4977235;28;19914;-78
2024/01/02 04:06:58;;;;;;;;;;;154.50;2252.80;;;;;;4977304;28;19906;-76
2024/01/02 04:09:23;;;;;;;;;;;154.50;2252.80;;;;;;4977344;28;19952;-76
2024/01/02 04:11:50;;;;;;;;;;;179.20;2252.80;;;;;;4977082;28;19914;-76
2024/01/02 04:14:16;;;;;;;;;;;179.20;2252.80;;;;;;4959850;28;19953;-77
2024/01/02 04:16:41;;;;;;;;;;;179.20;2252.80;;;;;;4976879;28;19960;-76
2024/01/02 04:19:07;;;;;;;;;;;179.20;2252.80;;;;;;4977329;28;19906;-78
2024/01/02 04:21:32;;;;;;;;;;;179.20;2252.80;;;;;;4976803;28;19929;-76
2024/01/02 04:23:59;;;;;;;;;;;179.20;2252.80;;;;;;4976799;28;20426;-76
2024/01/02 04:26:24;;;;;;;;;;;179.30;2252.80;;;;;;4976981;28;19906;-77
2024/01/02 04:28:50;;;;;;;;;;;179.20;2252.80;;;;;;4976976;28;19906;-76
2024/01/02 04:31:15;;;;;;;;;;;154.30;2252.80;;;;;;4976590;28;20253;-75
2024/01/02 04:33:41;;;;;;;;;;;154.30;2252.80;;;;;;4959585;28;20356;-76
2024/01/02 04:36:07;;;;;;;;;;;154.50;2252.80;;;;;;4977105;28;20004;-77
2024/01/02 04:38:32;;;;;;;;;;;179.20;2252.80;;;;;;4951974;28;19906;-76
2024/01/02 04:40:59;;;;;;;;;;;154.30;2252.80;;;;;;4971228;28;19906;-78
2024/01/02 04:43:25;;;;;;;;;;;179.20;2252.80;;;;;;4959215;28;19910;-76
2024/01/02 04:45:52;;;;;;;;;;;154.40;2252.80;;;;;;4976608;28;19910;-75
2024/01/02 04:48:17;;;;;;;;;;;154.10;2252.80;;;;;;4958108;28;19945;-75
2024/01/02 04:50:43;;;;;;;;;;;153.90;2252.80;;;;;;4976404;28;20340;-76
2024/01/02 04:53:08;;;;;;;;;;;153.80;2252.80;;;;;;4959206;28;19921;-77
2024/01/02 04:55:34;;;;;;;;;;;153.90;2252.80;;;;;;4976366;28;19906;-76
2024/01/02 04:58:02;;;;;;;;;;;154.00;2252.80;;;;;;4976617;28;19913;-77
2024/01/02 05:00:28;;;;;;;;;;;154.10;2252.80;;;;;;4958374;28;19937;-78
2024/01/02 05:02:53;;;;;;;;;;;154.10;2252.80;;;;;;4976083;28;19960;-76
2024/01/02 05:05:19;;;;;;;;;;;154.10;2252.80;;;;;;4976200;28;19937;-77
2024/01/02 05:07:45;;;;;;;;;;;153.80;2252.80;;;;;;4958807;28;20376;-76
2024/01/02 05:10:10;;;;;;;;;;;153.80;2252.80;;;;;;4958572;28;19906;-78
2024/01/02 05:12:36;;;;;;;;;;;153.80;2252.80;;;;;;4958922;28;19941;-76
2024/01/02 05:15:02;;;;;;;;;;;153.70;2252.80;;;;;;4975787;28;19909;-76
2024/01/02 05:17:28;;;;;;;;;;;128.90;2252.80;;;;;;4958790;28;19989;-79
2024/01/02 05:19:53;;;;;;;;;;;128.80;2252.80;;;;;;4975948;28;20455;-77
2024/01/02 05:22:19;;;;;;;;;;;128.70;2252.80;;;;;;4976027;28;19906;-76
2024/01/02 05:24:45;;;;;;;;;;;128.70;2252.80;;;;;;4975768;28;19910;-79
2024/01/02 05:27:10;;;;;;;;;;;128.50;2252.80;;;;;;4975820;28;19989;-76
2024/01/02 05:29:36;;;;;;;;;;;128.60;2252.80;;;;;;4975475;28;20008;-75
2024/01/02 05:32:03;;;;;;;;;;;128.50;2252.80;;;;;;4960534;28;19937;-76
2024/01/02 05:34:29;;;;;;;;;;;128.60;2252.80;;;;;;4962212;28;19912;-76
2024/01/02 05:36:55;;;;;;;;;;;128.70;2252.80;;;;;;4977603;28;19913;-78
2024/01/02 05:39:21;;;;;;;;;;;128.70;2252.80;;;;;;4958305;28;19906;-77
2024/01/02 05:41:46;;;;;;;;;;;128.60;2252.80;;;;;;4975751;28;19910;-76
2024/01/02 05:44:12;;;;;;;;;;;128.60;2252.80;;;;;;4957970;28;20360;-76
2024/01/02 05:46:38;;;;;;;;;;;128.40;2252.80;;;;;;4975504;28;19910;-76
2024/01/02 05:49:03;;;;;;;;;;;128.10;2252.80;;;;;;4957942;28;20347;-76
2024/01/02 05:51:29;;;;;;;;;;;128.00;2252.80;;;;;;4975454;28;19926;-77
2024/01/02 05:53:55;;;;;;;;;;;103.30;2227.20;;;;;;4975413;28;20349;-76
2024/01/02 05:56:20;;;;;;;;;;;103.30;2227.20;;;;;;4975565;28;19906;-76
2024/01/02 05:58:46;;;;;;;;;;;128.00;2252.80;;;;;;4957429;28;19917;-76
2024/01/02 06:01:11;;;;;;;;;;;103.20;2227.20;;;;;;4957648;28;19957;-76
2024/01/02 06:03:38;;;;;;;;;;;103.00;2227.20;;;;;;4972690;28;19906;-75
2024/01/02 06:06:05;;;;;;;;;;;103.10;2227.20;;;;;;4957486;28;19929;-75
2024/01/02 06:08:30;;;;;;;;;;;103.20;2227.20;;;;;;4974620;28;19906;-76
2024/01/02 06:10:56;;;;;;;;;;;103.10;2227.20;;;;;;4957229;28;19980;-76
2024/01/02 06:13:21;;;;;;;;;;;103.20;2227.20;;;;;;4974164;28;19918;-76
2024/01/02 06:15:47;;;;;;;;;;;128.20;2252.80;;;;;;4956981;28;19932;-76
2024/01/02 06:18:13;;;;;;;;;;;128.40;2252.80;;;;;;4957123;28;19953;-76
2024/01/02 06:20:38;;;;;;;;;;;128.60;2252.80;;;;;;4961397;28;19906;-78
2024/01/02 06:23:04;;;;;;;;;;;128.80;2252.80;;;;;;4973987;28;19918;-77
2024/01/02 06:25:30;;;;;;;;;;;128.90;2252.80;;;;;;4974491;28;19953;-76
2024/01/02 06:27:55;;;;;;;;;;;153.60;2252.80;;;;;;4956889;28;20004;-77
2024/01/02 06:30:22;;;;;;;;;;;153.60;2252.80;;;;;;4974286;28;20099;-76
2024/01/02 06:32:48;;;;;;;;;;;128.90;2252.80;;;;;;4973945;28;19914;-76
2024/01/02 06:35:14;;;;;;;;;;;128.90;2252.80;;;;;;4974160;28;20056;-76
2024/01/02 06:37:40;;;;;;;;;;;128.90;2252.80;;;;;;4974759;28;19950;-75
2024/01/02 06:40:07;;;;;;;;;;;128.80;2252.80;;;;;;4973953;28;20370;-76
2024/01/02 06:42:32;;;;;;;;;;;128.90;2252.80;;;;;;4972944;28;20045;-78
2024/01/02 06:44:58;;;;;;;;;;;128.90;2252.80;;;;;;4948843;29;20013;-76
2024/01/02 06:47:23;;;;;;;;;;;128.70;2252.80;;;;;;4971271;28;19911;-77
2024/01/02 06:49:49;;;;;;;;;;;128.60;2252.80;;;;;;4956285;28;19910;-77
2024/01/02 06:52:15;;;;;;;;;;;128.50;2252.80;;;;;;4953665;28;19914;-76
2024/01/02 06:54:41;;;;;;;;;;;128.30;2252.80;;;;;;4956480;28;19906;-77
2024/01/02 06:57:07;;;;;;;;;;;128.00;2252.80;;;;;;4956198;28;19930;-77
2024/01/02 06:59:33;;;;;;;;;;;103.30;2227.20;;;;;;4970258;28;19914;-77
2024/01/02 07:01:58;;;;;;;;;;;103.30;2227.20;;;;;;4952382;28;20361;-75
2024/01/02 07:04:24;;;;;;;;;;;103.30;2227.20;;;;;;4974033;28;19916;-77
2024/01/02 07:06:50;;;;;;;;;;;128.20;2252.80;;;;;;4973660;28;19906;-77
2024/01/02 07:09:15;;;;;;;;;;;128.30;2252.80;;;;;;4973493;28;20323;-76
2024/01/02 07:11:41;;;;;;;;;;;128.20;2252.80;;;;;;4954987;28;20496;-77
2024/01/02 07:14:07;;;;;;;;;;;128.10;2252.80;;;;;;4959728;28;20267;-75
2024/01/02 07:16:32;;;;;;;;;;;128.10;2252.80;;;;;;4977430;28;19973;-77
2024/01/02 07:18:58;;;;;;;;;;;128.20;2252.80;;;;;;4959749;28;19934;-77
2024/01/02 07:21:24;;;;;;;;;;;103.30;2227.20;;;;;;4977397;28;19945;-76
2024/01/02 07:23:49;;;;;;;;;;;103.20;2227.20;;;;;;4976597;28;19972;-77
2024/01/02 07:26:15;;;;;;;;;;;128.10;2252.80;;;;;;4960011;28;20279;-77
2024/01/02 07:28:41;;;;;;;;;;;128.30;2252.80;;;;;;4959532;28;20327;-75
2024/01/02 07:31:09;;;;;;;;;;;128.50;2252.80;;;;;;4976826;28;20478;-76
2024/01/02 07:33:34;;;;;;;;;;;128.50;2252.80;;;;;;4976563;28;19969;-75
2024/01/02 07:36:00;;;;;;;;;;;128.40;2252.80;;;;;;4976322;28;19957;-76
2024/01/02 07:38:26;;;;;;;;;;;128.30;2252.80;;;;;;4959323;28;19961;-78
2024/01/02 07:40:54;;;;;;;;;;;128.30;2252.80;;;;;;4958890;28;19914;-77
2024/01/02 07:43:21;;;;;;;;;;;128.10;2252.80;;;;;;4960089;28;19925;-78
2024/01/02 07:45:46;;;;;;;;;;;128.10;2252.80;;;;;;4977190;28;20057;-77
2024/01/02 07:48:12;;;;;;;;;;;128.40;2252.80;;;;;;4972487;28;19993;-78
2024/01/02 07:50:38;;;;;;;;;;;128.50;2252.80;;;;;;4959309;28;19906;-79
2024/01/02 07:53:03;;;;;;;;;;;128.50;2252.80;;;;;;4959793;28;19914;-78
2024/01/02 07:55:29;;;;;;;;;;;128.50;2252.80;;;;;;4976968;28;19906;-79
2024/01/02 07:57:54;;;;;;;;;;;128.40;2252.80;;;;;;4959564;28;19910;-77
2024/01/02 08:00:20;;;;;;;;;;;128.30;2252.80;;;;;;4977008;28;19965;-78
2024/01/02 08:02:46;;;;;;;;;;;128.30;2252.80;;;;;;4976093;28;19913;-78
2024/01/02 08:05:11;;;;;;;;;;;128.20;2252.80;;;;;;4976263;28;19906;-79
2024/01/02 08:07:37;;;;;;;;;;;128.30;2252.80;;;;;;4976962;28;19910;-79
2024/01/02 08:10:03;;;;;;;;;;;128.40;2252.80;;;;;;4959674;28;19912;-78
2024/01/02 08:12:29;;;;;;;;;;;128.60;2252.80;;;;;;4974843;28;19961;-79
2024/01/02 08:14:55;;;;;;;;;;;128.50;2252.80;;;;;;4959490;28;19950;-78
2024/01/02 08:17:23;;;;;;;;;;;128.70;2252.80;;;;;;4958930;28;19956;-80
2024/01/02 08:19:52;;;;;;;;;;;128.70;2252.80;;;;;;4976525;28;19952;-77
2024/01/02 08:22:18;;;;;;;;;;;128.80;1894.40;;;;;;4958605;28;20386;-78
2024/01/02 08:24:46;;;;;;;;;;;153.60;2252.80;;;;;;4975055;28;19913;-76
2024/01/02 08:27:12;;;;;;;;;;;153.70;2252.80;;;;;;4961796;28;19913;-75
2024/01/02 08:29:37;;;;;;;;;;;153.70;2252.80;;;;;;4958558;28;19906;-77
2024/01/02 08:32:03;;;;;;;;;;;153.80;2252.80;;;;;;4976416;28;20406;-77
2024/01/02 08:34:29;;;;;;;;;;;153.90;1868.80;;;;;;4976329;28;19906;-79
2024/01/02 08:36:55;;;;;;;;;;;154.00;2252.80;;;;;;4958767;28;19957;-77
2024/01/02 08:39:20;;;;;;;;;;;154.20;2048.00;;;;;;4958692;28;19910;-76
2024/01/02 08:41:46;;;;;;;;;;;154.40;2252.80;;;;;;4954912;28;19985;-76
2024/01/02 08:44:11;;;;;;;;;;;154.50;2252.80;;;;;;4975778;28;19996;-76
2024/01/02 08:46:37;;;;;;;;;;;154.50;2252.80;;;;;;4954507;28;19918;-77
2024/01/02 08:49:03;;;;;;;;;;;179.20;2252.80;;;;;;4951708;28;19913;-75
2024/01/02 08:51:28;;;;;;;;;;;179.20;2252.80;;;;;;4978764;28;20391;-78
2024/01/02 08:53:54;;;;;;;;;;;179.40;2252.80;;;;;;4978936;28;19906;-78
2024/01/02 08:56:21;;;;;;;;;;;179.50;2252.80;;;;;;4976130;28;19910;-78
2024/01/02 08:58:46;;;;;;;;;;;179.50;2252.80;;;;;;4975564;28;20193;-78
2024/01/02 09:01:12;;;;;;;;;;;179.70;2252.80;;;;;;4975472;28;19906;-78
2024/01/02 09:03:38;;;;;;;;;;;179.80;2252.80;;;;;;4958338;28;20363;-78
2024/01/02 09:06:04;;;;;;;;;;;179.90;2252.80;;;;;;4957586;28;19913;-78
2024/01/02 09:08:29;;;;;;;;;;;180.00;2252.80;;;;;;4958531;28;19906;-77
2024/01/02 09:10:55;;;;;;;;;;;180.10;2252.80;;;;;;4953902;28;20005;-76
2024/01/02 09:13:21;;;;;;;;;;;204.80;2252.80;;;;;;4957826;28;19925;-77
2024/01/02 09:15:47;;;;;;;;;;;204.80;2252.80;;;;;;4975566;28;19936;-77
2024/01/02 09:18:12;;;;;;;;;;;204.80;2252.80;;;;;;4974828;28;19906;-78
2024/01/02 09:20:38;;;;;;;;;;;204.90;2252.80;;;;;;4975367;28;19934;-79
2024/01/02 09:23:04;;;;;;;;;;;204.90;2252.80;;;;;;4975222;28;19918;-76
2024/01/02 09:25:31;;;;;;;;;;;205.00;2252.80;;;;;;4975628;28;19906;-76
2024/01/02 09:27:58;;;;;;;;;;;205.10;2252.80;;;;;;4952831;28;19977;-77
2024/01/02 09:30:23;;;;;;;;;;;205.30;2252.80;;;;;;4975759;28;19906;-76
2024/01/02 09:32:49;;;;;;;;;;;205.40;2252.80;;;;;;4956939;28;20376;-76
2024/01/02 09:35:15;;;;;;;;;;;205.50;2252.80;;;;;;4969024;28;19917;-76
2024/01/02 09:37:41;;;;;;;;;;;205.60;2252.80;;;;;;4975152;28;20308;-77
2024/01/02 09:40:12;;;;;;;;;;;230.40;2252.80;;;;;;4974857;28;20024;-76
2024/01/02 09:42:47;;;;;;;;;;;230.50;2252.80;;;;;;4974844;28;19913;-77
2024/01/02 09:45:13;;;;;;;;;;;230.60;2252.80;;;;;;4957542;28;19945;-77
2024/01/02 09:47:59;;;;;;;;;;;230.90;2252.80;;;;;;4974772;28;19952;-78
2024/01/02 09:50:25;;;;;;;;;;;230.90;2252.80;;;;;;4964690;28;19912;-75
2024/01/02 09:52:54;;;;;;;;;;;230.90;2252.80;;;;;;4974510;28;20284;-73
2024/01/02 09:55:31;;;;;;;;;;;231.00;2252.80;;;;;;4974801;28;19906;-74
2024/01/02 09:58:03;;;;;;;;;;;231.20;2252.80;;;;;;4966503;28;19910;-76
2024/01/02 10:00:32;;;;;;;;;;;256.10;2252.80;;;;;;4974917;28;19961;-76
2024/01/02 10:03:03;;;;;;;;;;;256.40;2252.80;;;;;;4974634;28;20017;-77
2024/01/02 10:05:35;;;;;;;;;;;256.70;2252.80;;;;;;4974806;28;20279;-76
2024/01/02 10:08:24;;;;;;;;;;;281.70;2278.40;;;;;;4974588;28;19913;-76
2024/01/02 10:10:50;;;;;;;;;;;;;;;;;;4920160;29;19964;-75
2024/01/02 10:13:29;;;;;;;;;;;281.80;2278.40;;;;;;4920256;29;20342;-77
2024/01/02 10:16:00;;;;;;;;;;;282.20;2278.40;;;;;;4904143;29;20373;-76
2024/01/02 10:18:34;;;;;;;;;;;307.20;2304.00;;;;;;4924753;29;19931;-80
2024/01/02 10:21:18;;;;;;;;;;;307.40;2304.00;;;;;;4916755;29;20002;-76
2024/01/02 10:23:54;;;;;;;;;;;307.50;2304.00;;;;;;4919578;29;20263;-75
2024/01/02 10:26:21;;;;;;;;;;;307.50;2304.00;;;;;;4898875;29;19986;-75
2024/01/02 10:28:48;;;;;;;;;;;307.60;2304.00;;;;;;4925195;29;19915;-76
2024/01/02 10:31:19;;;;;;;;;;;307.70;2304.00;;;;;;4930404;29;19907;-78
2024/01/02 10:33:53;;;;;;;;;;;307.90;2304.00;;;;;;4921191;29;20050;-77
2024/01/02 10:36:22;;;;;;;;;;;308.00;2304.00;;;;;;4926904;29;19942;-77
2024/01/02 10:39:07;;;;;;;;;;;307.80;2304.00;;;;;;4922874;29;19915;-77
2024/01/02 10:41:36;;;;;;;;;;;308.00;2304.00;;;;;;4925048;29;19993;-76
2024/01/02 10:44:21;;;;;;;;;;;307.80;2304.00;;;;;;4922167;29;19911;-78
2024/01/02 10:46:50;;;;;;;;;;;307.90;2304.00;;;;;;4926069;28;19911;-76
2024/01/02 10:49:15;;;;;;;;;;;307.90;2304.00;;;;;;4977751;28;19951;-76
2024/01/02 10:51:41;;;;;;;;;;;308.10;2304.00;;;;;;4978674;28;20278;-75
2024/01/02 10:54:24;;;;;;;;;;;332.90;2329.60;;;;;;4978064;28;19910;-75
2024/01/02 10:56:59;;;;;;;;;;;332.80;2329.60;;;;;;4978014;28;20411;-80
2024/01/02 10:59:34;;;;;;;;;;;332.90;2329.60;;;;;;4978264;28;20343;-79
2024/01/02 11:02:06;;;;;;;;;;;333.10;2329.60;;;;;;4978045;28;19906;-79
2024/01/02 11:04:32;;;;;;;;;;;333.20;2329.60;;;;;;4976899;28;19906;-80
2024/01/02 11:07:05;;;;;;;;;;;333.30;2329.60;;;;;;4966824;28;19990;-80
2024/01/02 11:09:43;;;;;;;;;;;333.40;2329.60;;;;;;4977681;28;19961;-80
2024/01/02 11:12:10;;;;;;;;;;;333.40;2329.60;;;;;;4953074;28;19956;-81
2024/01/02 11:14:38;;;;;;;;;;;333.60;2329.60;;;;;;4962502;28;19910;-77
2024/01/02 11:17:04;;;;;;;;;;;358.40;2329.60;;;;;;4977355;28;19910;-78
2024/01/02 11:19:33;;;;;;;;;;;358.40;2329.60;;;;;;4976960;28;19957;-75
2024/01/02 11:22:08;;;;;;;;;;;358.40;2329.60;;;;;;4978025;28;19953;-76
2024/01/02 11:24:34;;;;;;;;;;;358.50;2329.60;;;;;;4976064;28;20363;-77
2024/01/02 11:27:03;;;;;;;;;;;333.60;2329.60;;;;;;4968651;28;19961;-74
2024/01/02 11:29:30;;;;;;;;;;;358.50;2329.60;;;;;;4977377;28;19906;-75
2024/01/02 11:31:57;;;;;;;;;;;333.70;2329.60;;;;;;4977072;28;19910;-75
2024/01/02 11:34:32;;;;;;;;;;;333.60;2329.60;;;;;;4977699;28;20316;-76
2024/01/02 11:37:00;;;;;;;;;;;333.60;2329.60;;;;;;4960176;28;19978;-75
2024/01/02 11:39:35;;;;;;;;;;;333.40;2329.60;;;;;;4977151;28;19906;-78
2024/01/02 11:42:01;;;;;;;;;;;333.40;2329.60;;;;;;4975091;28;19910;-78
2024/01/02 11:44:59;;;;;;;;;;;333.30;2329.60;;;;;;4976650;28;19956;-76
2024/01/02 11:47:28;;;;;;;;;;;333.10;2329.60;;;;;;4898206;29;20055;-73
2024/01/02 11:49:56;;;;;;;;;;;333.00;2329.60;;;;;;4897553;29;19922;-74
2024/01/02 11:52:23;;;;;;;;;;;333.00;2329.60;;;;;;4892485;29;19952;-73
2024/01/02 11:54:57;;;;;;;;;;;332.90;2329.60;;;;;;4898202;29;20444;-75
2024/01/02 11:57:32;;;;;;;;;;;332.90;2329.60;;;;;;4897485;29;19915;-75
2024/01/02 12:00:07;;;;;;;;;;;307.90;2304.00;;;;;;4898133;29;20360;-75
2024/01/02 12:02:44;;;;;;;;;;;307.80;2304.00;;;;;;4897790;29;20349;-77
2024/01/02 12:05:18;;;;;;;;;;;307.70;2304.00;;;;;;4882627;29;19908;-76
2024/01/02 12:07:48;;;;;;;;;;;307.60;2304.00;;;;;;4893671;29;20369;-75
2024/01/02 12:10:14;;;;;;;;;;;307.40;2304.00;;;;;;4897252;29;19909;-75
2024/01/02 12:12:43;;;;;;;;;;;307.40;2304.00;;;;;;4897953;29;19919;-75
2024/01/02 12:15:11;;;;;;;;;;;307.30;2304.00;;;;;;4897888;29;19917;-77
2024/01/02 12:17:51;;;;;;;;;;;307.30;2304.00;;;;;;4897988;29;19941;-75
2024/01/02 12:20:18;;;;;;;;;;;307.30;2304.00;;;;;;4895097;29;19915;-74
2024/01/02 12:22:44;;;;;;;;;;;307.30;2304.00;;;;;;4919448;28;19914;-76
2024/01/02 12:25:11;;;;;;;;;;;307.20;2304.00;;;;;;4978349;28;19910;-76
2024/01/02 12:27:37;;;;;;;;;;;307.30;2304.00;;;;;;4961795;28;19914;-75
2024/01/02 12:30:04;;;;;;;;;;;307.30;2304.00;;;;;;4976537;28;19906;-76
2024/01/02 12:32:30;;;;;;;;;;;307.30;2304.00;;;;;;4975993;28;19925;-77
2024/01/02 12:35:02;;;;;;;;;;;307.30;2304.00;;;;;;4976195;28;19906;-75
2024/01/02 12:37:48;;;;;;;;;;;307.20;2304.00;;;;;;4958719;28;20303;-75
2024/01/02 12:40:18;;;;;;;;;;;307.30;2304.00;;;;;;4975900;28;19912;-76
2024/01/02 12:42:48;;;;;;;;;;;307.20;2304.00;;;;;;4975746;28;20038;-77
2024/01/02 12:45:15;;;;;;;;;;;282.50;2278.40;;;;;;4975925;28;20387;-77
2024/01/02 12:47:42;;;;;;;;;;;307.20;2304.00;;;;;;4975798;28;20311;-76
2024/01/02 12:50:08;;;;;;;;;;;307.20;2304.00;;;;;;4957522;28;19932;-77
2024/01/02 12:52:47;;;;;;;;;;;307.20;2304.00;;;;;;4969265;28;19921;-76
2024/01/02 12:55:16;;;;;;;;;;;282.50;2278.40;;;;;;4957801;28;20008;-76
2024/01/02 12:57:42;;;;;;;;;;;282.50;2278.40;;;;;;4955639;28;20012;-75
2024/01/02 13:00:10;;;;;;;;;;;282.50;2278.40;;;;;;4973333;28;19992;-76
2024/01/02 13:02:37;;;;;;;;;;;282.40;2278.40;;;;;;4974634;28;19933;-76
2024/01/02 13:05:04;;;;;;;;;;;282.30;2278.40;;;;;;4958261;28;19906;-76
2024/01/02 13:07:30;;;;;;;;;;;282.30;2278.40;;;;;;4957642;28;19906;-76
2024/01/02 13:09:56;;;;;;;;;;;282.30;2278.40;;;;;;4974406;28;19906;-76
2024/01/02 13:12:23;;;;;;;;;;;282.30;2278.40;;;;;;4957545;28;19921;-74
2024/01/02 13:14:49;;;;;;;;;;;282.30;2278.40;;;;;;4974872;28;19916;-75
2024/01/02 13:17:15;;;;;;;;;;;282.20;2278.40;;;;;;4975174;28;19984;-74
2024/01/02 13:19:41;;;;;;;;;;;282.10;2278.40;;;;;;4973838;28;19910;-74
2024/01/02 13:22:07;;;;;;;;;;;282.10;2278.40;;;;;;4974002;28;19914;-75
2024/01/02 13:24:43;;;;;;;;;;;282.10;2278.40;;;;;;4971112;28;19918;-74
2024/01/02 13:27:09;;;;;;;;;;;282.20;2278.40;;;;;;4977118;28;19948;-74
2024/01/02 13:29:35;;;;;;;;;;;282.20;2278.40;;;;;;4976978;28;19961;-74
2024/01/02 13:32:09;;;;;;;;;;;282.10;2278.40;;;;;;4956735;28;19992;-76
2024/01/02 13:34:34;;;;;;;;;;;282.10;2278.40;;;;;;4975528;28;19906;-77
2024/01/02 13:37:00;;;;;;;;;;;282.10;2278.40;;;;;;4966995;28;19910;-75
2024/01/02 13:39:30;;;;;;;;;;;282.10;2278.40;;;;;;4979578;28;19913;-76
2024/01/02 13:41:55;;;;;;;;;;;282.10;2278.40;;;;;;4957248;28;19906;-75